createdAt,value
2023-09-30T00:01:59.574Z,16.33
2023-09-30T00:04:26.003Z,16.35
2023-09-30T00:06:52.449Z,16.46
2023-09-30T00:09:18.821Z,16.52
2023-09-30T00:11:45.306Z,16.40
2023-09-30T00:14:11.919Z,16.30
2023-09-30T00:16:38.535Z,16.50
2023-09-30T00:19:04.866Z,16.56
2023-09-30T00:21:31.491Z,16.39
2023-09-30T00:23:58.031Z,16.29
2023-09-30T00:26:24.413Z,16.29
2023-09-30T00:28:50.836Z,16.29
2023-09-30T00:31:17.304Z,16.35
2023-09-30T00:33:43.726Z,16.35
2023-09-30T00:36:10.334Z,16.34
2023-09-30T00:38:36.586Z,16.58
2023-09-30T00:41:02.994Z,16.77
2023-09-30T00:43:29.402Z,16.69
2023-09-30T00:45:55.917Z,16.84
2023-09-30T00:48:22.434Z,16.88
2023-09-30T00:50:48.852Z,16.91
2023-09-30T00:53:15.276Z,16.85
2023-09-30T00:55:41.702Z,16.69
2023-09-30T00:58:08.065Z,16.64
2023-09-30T01:00:34.624Z,16.55
2023-09-30T01:03:01.018Z,16.51
2023-09-30T01:05:27.391Z,16.81
2023-09-30T01:07:53.874Z,16.75
2023-09-30T01:10:20.318Z,16.67
2023-09-30T01:12:46.729Z,16.72
2023-09-30T01:15:13.208Z,16.70
2023-09-30T01:17:39.570Z,16.68
2023-09-30T01:20:06.050Z,16.76
2023-09-30T01:22:32.433Z,16.85
2023-09-30T01:24:58.819Z,16.72
2023-09-30T01:27:25.249Z,16.57
2023-09-30T01:29:51.674Z,16.49
2023-09-30T01:32:18.098Z,16.50
2023-09-30T01:34:44.542Z,16.69
2023-09-30T01:37:10.916Z,16.74
2023-09-30T01:39:37.461Z,16.57
2023-09-30T01:42:03.784Z,16.52
2023-09-30T01:44:30.283Z,16.63
2023-09-30T01:46:56.670Z,16.67
2023-09-30T01:49:23.139Z,16.69
2023-09-30T01:51:49.497Z,16.63
2023-09-30T01:54:16.088Z,16.73
2023-09-30T01:56:42.361Z,16.68
2023-09-30T01:59:08.808Z,16.66
2023-09-30T02:01:35.320Z,16.50
2023-09-30T02:04:02.059Z,16.39
2023-09-30T02:06:28.077Z,16.24
2023-09-30T02:08:54.516Z,16.05
2023-09-30T02:11:20.926Z,16.09
2023-09-30T02:13:47.358Z,16.04
2023-09-30T02:16:13.851Z,15.86
2023-09-30T02:18:40.443Z,15.70
2023-09-30T02:21:06.804Z,15.59
2023-09-30T02:23:33.204Z,15.70
2023-09-30T02:25:59.627Z,15.57
2023-09-30T02:28:26.068Z,15.43
2023-09-30T02:30:52.469Z,15.32
2023-09-30T02:33:19.218Z,15.21
2023-09-30T02:35:45.564Z,15.29
2023-09-30T02:38:12.002Z,15.23
2023-09-30T02:40:38.439Z,15.11
2023-09-30T02:43:04.875Z,15.05
2023-09-30T02:45:31.305Z,15.28
2023-09-30T02:47:57.769Z,15.53
2023-09-30T02:50:24.090Z,15.42
2023-09-30T02:52:50.569Z,15.44
2023-09-30T02:55:16.934Z,15.42
2023-09-30T02:57:43.422Z,15.56
2023-09-30T03:00:09.804Z,15.60
2023-09-30T03:02:36.270Z,15.65
2023-09-30T03:05:02.664Z,15.63
2023-09-30T03:07:29.053Z,15.61
2023-09-30T03:09:55.445Z,15.56
2023-09-30T03:12:21.886Z,15.51
2023-09-30T03:14:48.302Z,15.53
2023-09-30T03:17:14.866Z,15.48
2023-09-30T03:19:41.179Z,15.61
2023-09-30T03:22:07.703Z,15.61
2023-09-30T03:24:34.165Z,15.51
2023-09-30T03:27:00.568Z,15.54
2023-09-30T03:29:26.990Z,15.54
2023-09-30T03:31:53.419Z,15.54
2023-09-30T03:34:19.932Z,15.53
2023-09-30T03:36:46.365Z,15.59
2023-09-30T03:39:12.717Z,15.55
2023-09-30T03:41:39.152Z,15.39
2023-09-30T03:44:05.685Z,15.50
2023-09-30T03:46:32.295Z,15.42
2023-09-30T03:48:58.747Z,15.15
2023-09-30T03:51:25.147Z,14.93
2023-09-30T03:53:51.436Z,14.86
2023-09-30T03:56:17.847Z,14.91
2023-09-30T03:58:44.251Z,14.86
2023-09-30T04:01:10.789Z,14.92
2023-09-30T04:03:37.278Z,15.06
2023-09-30T04:06:03.592Z,15.07
2023-09-30T04:08:29.929Z,15.12
2023-09-30T04:10:56.353Z,15.26
2023-09-30T04:13:22.781Z,15.26
2023-09-30T04:15:50.173Z,15.02
2023-09-30T04:18:15.762Z,14.86
2023-09-30T04:20:42.110Z,14.75
2023-09-30T04:23:08.518Z,14.46
2023-09-30T04:25:34.941Z,14.25
2023-09-30T04:28:01.304Z,14.09
2023-09-30T04:30:27.867Z,14.12
2023-09-30T04:32:54.294Z,14.15
2023-09-30T04:35:20.688Z,14.18
2023-09-30T04:37:47.068Z,14.10
2023-09-30T04:40:13.548Z,14.15
2023-09-30T04:42:40.018Z,14.43
2023-09-30T04:45:06.410Z,14.63
2023-09-30T04:47:32.910Z,14.85
2023-09-30T04:49:59.272Z,15.04
2023-09-30T04:52:25.633Z,15.18
2023-09-30T04:54:52.179Z,15.19
2023-09-30T04:57:18.515Z,15.32
2023-09-30T04:59:45.020Z,15.45
2023-09-30T05:02:11.401Z,15.50
2023-09-30T05:04:37.935Z,15.48
2023-09-30T05:07:04.296Z,15.61
2023-09-30T05:09:30.867Z,15.79
2023-09-30T05:11:57.242Z,16.03
2023-09-30T05:14:23.910Z,16.02
2023-09-30T05:16:50.434Z,16.23
2023-09-30T05:19:16.743Z,16.42
2023-09-30T05:21:43.166Z,16.57
2023-09-30T05:24:09.550Z,16.83
2023-09-30T05:26:35.916Z,16.99
2023-09-30T05:29:02.407Z,17.04
2023-09-30T05:31:31.161Z,17.18
2023-09-30T05:33:55.344Z,17.31
2023-09-30T05:36:24.078Z,17.43
2023-09-30T05:38:50.499Z,17.54
2023-09-30T05:41:16.947Z,17.79
2023-09-30T05:43:43.365Z,18.01
2023-09-30T05:46:09.860Z,17.95
2023-09-30T05:48:36.278Z,18.10
2023-09-30T05:51:02.674Z,18.30
2023-09-30T05:53:29.100Z,18.60
2023-09-30T05:55:55.533Z,18.52
2023-09-30T05:58:22.080Z,18.46
2023-09-30T06:00:48.600Z,18.57
2023-09-30T06:03:15.063Z,18.91
2023-09-30T06:05:41.478Z,19.08
2023-09-30T06:08:07.900Z,19.24
2023-09-30T06:10:34.342Z,19.68
2023-09-30T06:13:00.980Z,19.73
2023-09-30T06:15:27.960Z,19.61
2023-09-30T06:17:53.765Z,19.88
2023-09-30T06:20:20.142Z,20.03
2023-09-30T06:22:46.616Z,20.17
2023-09-30T06:25:13.078Z,20.35
2023-09-30T06:27:39.492Z,20.50
2023-09-30T06:30:05.828Z,20.70
2023-09-30T06:32:32.318Z,20.64
2023-09-30T06:34:58.685Z,20.77
2023-09-30T06:37:25.211Z,20.82
2023-09-30T06:39:51.644Z,21.05
2023-09-30T06:42:18.215Z,21.23
2023-09-30T06:44:44.604Z,21.55
2023-09-30T06:47:11.148Z,21.82
2023-09-30T06:49:37.616Z,22.06
2023-09-30T06:52:04.115Z,22.05
2023-09-30T06:54:30.476Z,22.18
2023-09-30T06:56:56.911Z,22.44
2023-09-30T06:59:23.408Z,22.54
2023-09-30T07:01:50.336Z,22.57
2023-09-30T07:04:16.903Z,22.51
2023-09-30T07:06:43.318Z,22.76
2023-09-30T07:09:09.757Z,22.84
2023-09-30T07:11:36.298Z,23.16
2023-09-30T07:14:02.825Z,23.44
2023-09-30T07:16:29.520Z,23.35
2023-09-30T07:18:56.011Z,23.72
2023-09-30T07:21:22.311Z,23.35
2023-09-30T07:23:48.919Z,23.29
2023-09-30T07:26:15.424Z,23.51
2023-09-30T07:28:41.833Z,23.82
2023-09-30T07:31:08.514Z,23.79
2023-09-30T07:33:34.768Z,23.68
2023-09-30T07:36:01.245Z,24.13
2023-09-30T07:38:27.616Z,24.22
2023-09-30T07:40:54.116Z,24.52
2023-09-30T07:43:20.500Z,24.85
2023-09-30T07:45:47.056Z,25.12
2023-09-30T07:48:13.481Z,25.31
2023-09-30T07:50:39.833Z,25.45
2023-09-30T07:53:06.266Z,25.31
2023-09-30T07:55:33.036Z,25.30
2023-09-30T07:57:59.403Z,25.51
2023-09-30T08:00:25.918Z,25.67
2023-09-30T08:02:52.431Z,26.00
2023-09-30T08:05:18.861Z,26.28
2023-09-30T08:07:45.213Z,26.54
2023-09-30T08:10:11.702Z,26.36
2023-09-30T08:12:38.165Z,26.13
2023-09-30T08:15:05.034Z,26.20
2023-09-30T08:17:31.009Z,26.27
2023-09-30T08:19:57.456Z,26.30
2023-09-30T08:22:23.894Z,26.92
2023-09-30T08:24:50.381Z,26.78
2023-09-30T08:27:16.851Z,27.13
2023-09-30T08:29:43.299Z,26.63
2023-09-30T08:32:09.929Z,26.56
2023-09-30T08:34:36.349Z,27.43
2023-09-30T08:37:02.707Z,27.81
2023-09-30T08:39:29.386Z,28.30
2023-09-30T08:41:55.690Z,27.59
2023-09-30T08:44:22.186Z,27.23
2023-09-30T08:46:48.661Z,27.42
2023-09-30T08:49:14.995Z,28.02
2023-09-30T08:51:41.452Z,28.05
2023-09-30T08:54:07.818Z,28.34
2023-09-30T08:56:34.258Z,28.37
2023-09-30T08:59:00.680Z,28.72
2023-09-30T09:01:27.102Z,29.14
2023-09-30T09:03:53.706Z,29.02
2023-09-30T09:06:19.942Z,29.00
2023-09-30T09:08:46.416Z,29.46
2023-09-30T09:11:12.796Z,29.70
2023-09-30T09:13:39.266Z,29.74
2023-09-30T09:16:05.850Z,29.40
2023-09-30T09:18:32.201Z,29.33
2023-09-30T09:20:58.519Z,29.54
2023-09-30T09:23:24.976Z,29.64
2023-09-30T09:25:51.352Z,29.99
2023-09-30T09:28:17.761Z,30.01
2023-09-30T09:30:44.133Z,30.13
2023-09-30T09:33:10.649Z,29.40
2023-09-30T09:35:37.074Z,29.60
2023-09-30T09:38:03.498Z,30.01
2023-09-30T09:40:30.057Z,29.67
2023-09-30T09:42:56.460Z,29.70
2023-09-30T09:45:22.882Z,29.62
2023-09-30T09:47:49.361Z,30.23
2023-09-30T09:50:15.997Z,30.62
2023-09-30T09:52:42.389Z,30.65
2023-09-30T09:55:08.856Z,30.58
2023-09-30T09:57:36.287Z,30.75
2023-09-30T10:00:02.760Z,31.20
2023-09-30T10:02:29.605Z,30.79
2023-09-30T10:04:55.859Z,30.22
2023-09-30T10:07:22.340Z,30.80
2023-09-30T10:09:48.804Z,31.02
2023-09-30T10:12:15.182Z,30.90
2023-09-30T10:14:41.652Z,31.15
2023-09-30T10:17:08.035Z,30.98
2023-09-30T10:19:34.649Z,31.06
2023-09-30T10:22:01.320Z,31.06
2023-09-30T10:24:27.713Z,30.84
2023-09-30T10:26:54.172Z,31.13
2023-09-30T10:29:20.639Z,30.30
2023-09-30T10:31:47.103Z,30.46
2023-09-30T10:34:13.507Z,30.13
2023-09-30T10:36:39.906Z,30.23
2023-09-30T10:39:06.454Z,30.49
2023-09-30T10:41:32.915Z,30.40
2023-09-30T10:43:59.306Z,30.88
2023-09-30T10:46:25.729Z,30.84
2023-09-30T10:48:52.425Z,31.13
2023-09-30T10:51:18.749Z,31.09
2023-09-30T10:53:45.297Z,30.98
2023-09-30T10:56:11.714Z,30.83
2023-09-30T10:58:38.265Z,31.27
2023-09-30T11:01:04.777Z,31.41
2023-09-30T11:03:31.275Z,31.46
2023-09-30T11:06:11.704Z,31.32
2023-09-30T11:08:24.235Z,31.65
2023-09-30T11:10:50.589Z,32.03
2023-09-30T11:13:17.075Z,31.46
2023-09-30T11:15:43.502Z,29.68
2023-09-30T11:18:09.919Z,29.77
2023-09-30T11:20:36.414Z,30.38
2023-09-30T11:23:02.889Z,30.10
2023-09-30T11:25:29.331Z,30.10
2023-09-30T11:27:55.800Z,30.08
2023-09-30T11:30:22.283Z,29.98
2023-09-30T11:32:48.810Z,29.64
2023-09-30T11:35:15.160Z,29.10
2023-09-30T11:37:41.624Z,28.95
2023-09-30T11:40:08.340Z,28.81
2023-09-30T11:42:34.712Z,29.06
2023-09-30T11:45:01.094Z,29.07
2023-09-30T11:47:27.618Z,29.17
2023-09-30T11:49:54.173Z,28.85
2023-09-30T11:52:20.717Z,29.04
2023-09-30T11:54:47.140Z,29.37
2023-09-30T11:57:13.682Z,29.55
2023-09-30T11:59:40.327Z,29.50
2023-09-30T12:02:13.665Z,29.74
2023-09-30T12:04:33.350Z,30.16
2023-09-30T12:06:59.736Z,30.95
2023-09-30T12:09:26.193Z,31.38
2023-09-30T12:11:52.733Z,30.74
2023-09-30T12:14:19.107Z,30.54
2023-09-30T12:16:45.692Z,29.91
2023-09-30T12:19:12.318Z,29.72
2023-09-30T12:21:38.747Z,29.35
2023-09-30T12:24:05.159Z,29.94
2023-09-30T12:26:31.591Z,30.52
2023-09-30T12:28:58.229Z,30.60
2023-09-30T12:31:24.574Z,30.23
2023-09-30T12:33:50.868Z,30.38
2023-09-30T12:36:17.250Z,30.38
2023-09-30T12:38:43.772Z,30.82
2023-09-30T12:41:10.220Z,30.84
2023-09-30T12:43:36.939Z,31.02
2023-09-30T12:46:03.669Z,30.46
2023-09-30T12:48:29.840Z,30.28
2023-09-30T12:50:56.231Z,30.47
2023-09-30T12:53:22.593Z,30.80
2023-09-30T12:55:49.098Z,30.68
2023-09-30T12:58:15.615Z,30.21
2023-09-30T13:00:42.068Z,29.49
2023-09-30T13:03:08.446Z,28.76
2023-09-30T13:05:34.871Z,28.11
2023-09-30T13:08:01.232Z,27.70
2023-09-30T13:10:27.703Z,26.97
2023-09-30T13:12:54.114Z,26.62
2023-09-30T13:15:20.567Z,26.64
2023-09-30T13:17:47.025Z,26.81
2023-09-30T13:20:13.516Z,26.89
2023-09-30T13:22:39.903Z,26.84
2023-09-30T13:25:06.339Z,26.45
2023-09-30T13:27:32.707Z,26.66
2023-09-30T13:29:59.153Z,26.74
2023-09-30T13:32:25.522Z,26.55
2023-09-30T13:34:52.050Z,26.48
2023-09-30T13:37:18.454Z,26.40
2023-09-30T13:39:45.021Z,26.55
2023-09-30T13:42:11.420Z,26.63
2023-09-30T13:44:38.061Z,26.44
2023-09-30T13:47:04.478Z,26.17
2023-09-30T13:49:30.917Z,26.08
2023-09-30T13:51:57.330Z,26.12
2023-09-30T13:54:23.800Z,26.23
2023-09-30T13:56:50.153Z,25.98
2023-09-30T13:59:16.656Z,25.80
2023-09-30T14:01:43.109Z,25.72
2023-09-30T14:04:09.570Z,25.70
2023-09-30T14:06:35.905Z,25.83
2023-09-30T14:09:02.400Z,25.86
2023-09-30T14:11:28.923Z,25.83
2023-09-30T14:13:55.368Z,25.80
2023-09-30T14:16:21.828Z,25.74
2023-09-30T14:18:48.268Z,25.68
2023-09-30T14:21:14.829Z,25.61
2023-09-30T14:23:41.310Z,25.53
2023-09-30T14:26:07.680Z,25.39
2023-09-30T14:28:34.083Z,25.34
2023-09-30T14:31:00.591Z,25.35
2023-09-30T14:33:26.938Z,25.24
2023-09-30T14:35:53.322Z,25.25
2023-09-30T14:38:19.801Z,25.25
2023-09-30T14:40:46.152Z,25.21
2023-09-30T14:43:12.600Z,25.21
2023-09-30T14:45:39.019Z,25.31
2023-09-30T14:48:05.396Z,25.38
2023-09-30T14:50:31.840Z,25.42
2023-09-30T14:52:58.397Z,25.33
2023-09-30T14:55:24.813Z,25.24
2023-09-30T14:57:51.273Z,25.20
2023-09-30T15:00:17.676Z,25.08
2023-09-30T15:02:44.148Z,24.98
2023-09-30T15:05:10.865Z,24.91
2023-09-30T15:07:37.410Z,24.87
2023-09-30T15:10:03.914Z,24.83
2023-09-30T15:12:30.275Z,24.80
2023-09-30T15:14:56.634Z,24.76
2023-09-30T15:17:23.134Z,24.66
2023-09-30T15:19:49.569Z,24.57
2023-09-30T15:22:16.154Z,24.51
2023-09-30T15:24:42.513Z,24.46
2023-09-30T15:27:08.970Z,24.39
2023-09-30T15:29:35.315Z,24.34
2023-09-30T15:32:01.781Z,24.26
2023-09-30T15:34:28.161Z,24.19
2023-09-30T15:36:54.664Z,24.15
2023-09-30T15:39:20.960Z,24.04
2023-09-30T15:41:47.457Z,23.98
2023-09-30T15:44:13.812Z,23.93
2023-09-30T15:46:40.279Z,23.82
2023-09-30T15:49:06.697Z,23.75
2023-09-30T15:51:33.112Z,23.68
2023-09-30T15:53:59.627Z,23.58
2023-09-30T15:56:25.936Z,23.52
2023-09-30T15:58:52.284Z,23.45
2023-09-30T16:01:18.788Z,23.42
2023-09-30T16:03:45.189Z,23.37
2023-09-30T16:06:11.608Z,23.29
2023-09-30T16:08:37.940Z,23.21
2023-09-30T16:11:04.449Z,23.14
2023-09-30T16:13:30.826Z,23.06
2023-09-30T16:15:57.397Z,22.98
2023-09-30T16:18:23.764Z,22.85
2023-09-30T16:20:50.300Z,22.74
2023-09-30T16:23:16.697Z,22.70
2023-09-30T16:25:43.323Z,22.61
2023-09-30T16:28:09.937Z,22.53
2023-09-30T16:30:36.553Z,22.52
2023-09-30T16:33:02.728Z,22.50
2023-09-30T16:35:29.189Z,22.47
2023-09-30T16:37:55.629Z,22.36
2023-09-30T16:40:22.172Z,22.28
2023-09-30T16:42:48.724Z,22.22
2023-09-30T16:45:15.123Z,22.15
2023-09-30T16:47:41.529Z,22.04
2023-09-30T16:50:07.998Z,21.96
2023-09-30T16:52:34.460Z,21.87
2023-09-30T16:55:01.301Z,21.77
2023-09-30T16:57:27.303Z,21.72
2023-09-30T16:59:53.839Z,21.66
2023-09-30T17:02:20.193Z,21.59
2023-09-30T17:04:46.596Z,21.52
2023-09-30T17:07:13.241Z,21.50
2023-09-30T17:09:40.051Z,21.44
2023-09-30T17:12:06.522Z,21.39
2023-09-30T17:14:32.972Z,21.33
2023-09-30T17:16:59.358Z,21.29
2023-09-30T17:19:25.719Z,21.23
2023-09-30T17:21:52.177Z,21.18
2023-09-30T17:24:18.690Z,21.14
2023-09-30T17:26:45.396Z,21.06
2023-09-30T17:29:11.866Z,20.98
2023-09-30T17:31:38.484Z,20.88
2023-09-30T17:34:04.749Z,20.79
2023-09-30T17:36:32.391Z,20.81
2023-09-30T17:38:58.830Z,20.74
2023-09-30T17:41:25.269Z,20.74
2023-09-30T17:43:51.792Z,20.68
2023-09-30T17:46:18.280Z,20.66
2023-09-30T17:48:44.730Z,20.67
2023-09-30T17:51:11.071Z,20.65
2023-09-30T17:53:37.680Z,20.70
2023-09-30T17:56:04.029Z,20.65
2023-09-30T17:58:30.466Z,20.61
2023-09-30T18:00:56.829Z,20.63
2023-09-30T18:03:24.396Z,20.60
2023-09-30T18:05:50.820Z,20.55
2023-09-30T18:08:17.346Z,20.48
2023-09-30T18:10:43.774Z,20.43
2023-09-30T18:13:10.615Z,20.36
2023-09-30T18:15:36.975Z,20.40
2023-09-30T18:18:11.973Z,20.29
2023-09-30T18:20:29.914Z,20.22
2023-09-30T18:22:56.515Z,20.10
2023-09-30T18:25:22.981Z,20.15
2023-09-30T18:27:49.419Z,20.15
2023-09-30T18:30:15.839Z,20.28
2023-09-30T18:32:43.461Z,20.33
2023-09-30T18:35:09.959Z,20.33
2023-09-30T18:37:36.400Z,20.31
2023-09-30T18:40:05.260Z,20.22
2023-09-30T18:42:31.730Z,20.13
2023-09-30T18:44:58.137Z,20.12
2023-09-30T18:47:24.572Z,20.06
2023-09-30T18:49:50.951Z,20.02
2023-09-30T18:52:17.695Z,20.06
2023-09-30T18:54:44.042Z,20.01
2023-09-30T18:57:10.407Z,19.92
2023-09-30T18:59:36.769Z,19.91
2023-09-30T19:02:03.259Z,19.92
2023-09-30T19:04:29.594Z,19.90
2023-09-30T19:06:55.997Z,19.89
2023-09-30T19:09:22.315Z,19.73
2023-09-30T19:11:48.823Z,19.71
2023-09-30T19:14:15.322Z,19.71
2023-09-30T19:16:41.639Z,19.62
2023-09-30T19:19:08.010Z,19.70
2023-09-30T19:21:34.441Z,19.63
2023-09-30T19:24:00.877Z,19.49
2023-09-30T19:26:27.299Z,19.43
2023-09-30T19:28:53.687Z,19.34
2023-09-30T19:31:20.195Z,19.22
2023-09-30T19:33:46.593Z,19.15
2023-09-30T19:36:13.158Z,19.05
2023-09-30T19:38:39.530Z,18.90
2023-09-30T19:41:05.913Z,18.75
2023-09-30T19:43:32.304Z,18.50
2023-09-30T19:45:58.770Z,18.34
2023-09-30T19:48:25.064Z,18.35
2023-09-30T19:50:51.516Z,18.32
2023-09-30T19:53:17.972Z,18.33
2023-09-30T19:55:44.508Z,18.21
2023-09-30T19:58:11.149Z,18.06
2023-09-30T20:00:37.493Z,17.86
2023-09-30T20:03:03.934Z,17.87
2023-09-30T20:05:30.255Z,17.70
2023-09-30T20:07:56.792Z,17.55
2023-09-30T20:10:23.155Z,17.67
2023-09-30T20:12:49.763Z,17.78
2023-09-30T20:15:16.087Z,17.74
2023-09-30T20:17:42.659Z,17.67
2023-09-30T20:20:09.125Z,17.62
2023-09-30T20:22:35.565Z,17.67
2023-09-30T20:25:01.941Z,17.60
2023-09-30T20:27:28.427Z,17.68
2023-09-30T20:29:54.857Z,17.72
2023-09-30T20:32:21.308Z,17.67
2023-09-30T20:34:47.718Z,17.60
2023-09-30T20:37:14.203Z,17.57
2023-09-30T20:39:40.694Z,17.72
2023-09-30T20:42:07.013Z,17.66
2023-09-30T20:44:33.369Z,17.71
2023-09-30T20:46:59.906Z,17.78
2023-09-30T20:49:26.409Z,17.70
2023-09-30T20:51:52.791Z,17.64
2023-09-30T20:54:19.113Z,17.44
2023-09-30T20:56:45.573Z,17.65
2023-09-30T20:59:11.864Z,17.68
2023-09-30T21:01:38.447Z,17.66
2023-09-30T21:04:04.744Z,17.72
2023-09-30T21:06:31.253Z,17.57
2023-09-30T21:08:58.033Z,17.45
2023-09-30T21:11:24.127Z,17.62
2023-09-30T21:13:50.503Z,17.56
2023-09-30T21:16:17.028Z,17.59
2023-09-30T21:18:43.348Z,17.64
2023-09-30T21:21:09.758Z,17.66
2023-09-30T21:23:36.147Z,17.75
2023-09-30T21:26:02.631Z,17.83
2023-09-30T21:28:28.972Z,17.93
2023-09-30T21:30:55.635Z,17.98
2023-09-30T21:33:21.918Z,18.05
2023-09-30T21:35:48.357Z,18.09
2023-09-30T21:38:14.733Z,18.06
2023-09-30T21:40:41.215Z,18.07
2023-09-30T21:43:07.670Z,18.12
2023-09-30T21:45:34.076Z,18.07
2023-09-30T21:48:00.447Z,17.99
2023-09-30T21:50:26.865Z,17.86
2023-09-30T21:52:53.236Z,17.71
2023-09-30T21:55:20.174Z,17.60
2023-09-30T21:57:46.651Z,17.42
2023-09-30T22:00:13.002Z,17.37
2023-09-30T22:02:39.514Z,17.28
2023-09-30T22:05:05.959Z,17.04
2023-09-30T22:07:32.385Z,16.99
2023-09-30T22:09:58.887Z,17.12
2023-09-30T22:12:25.218Z,17.10
2023-09-30T22:14:51.729Z,17.12
2023-09-30T22:17:18.217Z,17.19
2023-09-30T22:19:44.672Z,17.30
2023-09-30T22:22:11.110Z,17.38
2023-09-30T22:24:37.469Z,17.13
2023-09-30T22:27:03.964Z,17.00
2023-09-30T22:29:30.353Z,16.95
2023-09-30T22:31:56.777Z,17.00
2023-09-30T22:34:23.170Z,17.05
2023-09-30T22:36:49.595Z,17.11
2023-09-30T22:39:17.961Z,17.08
2023-09-30T22:41:42.419Z,17.02
2023-09-30T22:44:08.880Z,17.11
2023-09-30T22:46:35.367Z,17.25
2023-09-30T22:49:01.993Z,16.94
2023-09-30T22:51:28.238Z,16.46
2023-09-30T22:53:54.726Z,16.32
2023-09-30T22:56:21.113Z,16.42
2023-09-30T22:58:47.584Z,16.53
2023-09-30T23:01:14.295Z,16.64
2023-09-30T23:03:40.905Z,16.62
2023-09-30T23:06:07.289Z,16.54
2023-09-30T23:08:33.721Z,16.38
2023-09-30T23:11:00.164Z,16.30
2023-09-30T23:13:26.572Z,16.45
2023-09-30T23:15:53.096Z,16.30
2023-09-30T23:18:19.703Z,16.22
2023-09-30T23:20:45.904Z,16.06
2023-09-30T23:23:12.487Z,15.90
2023-09-30T23:25:38.832Z,15.81
2023-09-30T23:28:05.325Z,15.60
2023-09-30T23:30:31.647Z,15.52
2023-09-30T23:32:58.775Z,15.49
2023-09-30T23:35:24.541Z,15.41
2023-09-30T23:37:50.972Z,15.30
2023-09-30T23:40:17.461Z,15.22
2023-09-30T23:42:43.886Z,15.11
2023-09-30T23:45:10.232Z,14.98
2023-09-30T23:47:48.918Z,14.90
2023-09-30T23:50:03.198Z,14.93
2023-09-30T23:52:29.632Z,15.02
2023-09-30T23:54:56.108Z,15.03
2023-09-30T23:57:22.483Z,15.15
2023-09-30T23:59:48.926Z,15.18
